Homebases

[av_textblock size=” font_color=” color=” av-medium-font-size=” av-small-font-size=” av-mini-font-size=” av_uid=’av-jyzuj987′ custom_class=” admin_preview_bg=”]
EBAW

EBAW 170720Z 23004KT 5000 BR NSC 15/13 Q1017 NOSIG

TAF TAF EBAW 232300Z 2400/2412 25011KT 9999 SCT030

EHWO

EHWO 170725Z AUTO 22004KT 160V260 3000 BR BKN004 OVC005 14/13 Q1016 YLO TEMPO BKN004

TAF EHWO 170455Z 1705/1717 VRB02KT 3000 BR MIFG NSC PROB40 TEMPO 1705/1707 0800 BCFG PROB40 TEMPO 1705/1710 FEW002 BKN004 BECMG 1707/1709 26006KT 7000 NSW

EBBL

EBBL 170725Z 21005KT 6000 BKN070 15/13 Q1016 WHT WHT

TAF EBBL 161541Z 1619/1707 VRB03KT 9999 SCT035 TEMPO 1621/1707 5000 BR FEW010 SCT050 PROB40 TEMPO 1700/1707 4000 BR SCT008 SCT050 PROB30 TEMPO 1700/1707 2000 BR BKN004

Always consult the official METAR resources.

[/av_textblock]

[av_textblock size=” font_color=” color=” av-desktop-hide=” av-medium-hide=” av-small-hide=” av-mini-hide=” av-medium-font-size=” av-small-font-size=” av-mini-font-size=” av_uid=’av-srtu’]


[/av_textblock]